メインページ
METAR-TAF:

METAR-TAF

空港 :

エルサルバドル国際空港

エルサルバドル, エルサルバドル

緯度: 13-26N, 経度: 089-03W, 海抜: 25m

現時点の気象観測

当レポートは35分前の05:50(UTC)に作成
変向風 2kt
気温 24°C
湿度 100%
気圧 1011 hPa
視程10km以上
高度6600ftの雲は散在している

METAR: MSLP 200550Z VRB02KT 9999 SCT066 24/24 Q1011 A2986 NOSIG

時間: 00:25 (06:25 UTC)

予報

当レポートは3時間0分前の03:25(UTC)に作成
予報は20日の 06時(UTC)から 21日の 06時(UTC)まで有効
北東の風 4kt
視程10km以上
高度2300ftの雲はほとんどない
高度7000ftの千切れ雲あり
20日の 1200時(UTC)から
高度2300ftの雲はほとんどない
20日の 1800時(UTC)から
西/南西の風 10kt
視程10km以上
高度2300ftの雲は散在している
高度3700ftの雲はほとんどない, 積乱雲.
20日の 20時(UTC)から 20日の 24時(UTC)まで一時的に
視程: 8000m
激しい雷雨, 雨
21日の 0000時(UTC)から
北/北西の風 4kt
視程10km以上
高度2300ftの雲はほとんどない
高度4000ftの雲はほとんどない, 積乱雲.

TAF: MSLP 200325Z 2006/2106 05004KT 9999 FEW023 BKN070 TX32/2019Z TN23/2010Z FM201200 FEW023 FM201800 24010KT 9999 SCT023 FEW037CB TEMPO 2020/2024 8000 TSRA FM210000 33004KT 9999 FEW023 FEW040CB

4,000以上の空港の気象観測と天気予報(METAR報とTAF報)

利用可能な観測所は地図上に黄色い丸と赤い丸で示す。

丸の上にカーソルを重ねると観測所名を参照できる。

次にクリックすると気象観測と天気予報を参照できる。

マップの切り替え:黒色「×」印の緑ボタンをクリックして拡大、「-」印の緑ボタンをクリックして縮小、緑色の三角印をクリックして隣りの地図に切り替え


METAR-TAF: